Lady Ann Magee — 9HA2775 — position and weather

sailwx.info

Track history (hours):
 
Tides and Currents Weather Stations Pressure Air Temp Water Temp Dewpoint Dewpoint Depression Visibility Wind Speed Wind Dir Waves Ship Positions

Lady Ann Magee

Last reported at 2015-Aug-26 16:17 UTC. Time now 2015-Aug-29 16:54 UTC.
Position N 43°44' E 007°25'.

Length 50 m; draft 3.4 m.

Type: Ship. MMSI: 215660000.

Date/timePositionNaut miles runAvg speedWind from/ knotsBaromVisibWave heightAir tempDewpointWater temp
2015-Aug-26 16:17N 43°44' E 007°25'0 0.0
2015-Aug-26 15:23N 43°44' E 007°25'0 0.0
2015-Aug-26 10:32N 43°44' E 007°25'  
2015-Aug-22 00:27N 43°60' E 008°33'910.2
2015-Aug-21 23:32N 44°05' E 008°43'10 9.9
2015-Aug-21 22:33N 44°10' E 008°55'10 9.9
2015-Aug-21 21:33N 44°15' E 009°07'6 0.4
2015-Aug-21 08:11N 44°18' E 009°13'0 0.0
2015-Aug-21 07:32N 44°18' E 009°13'2 0.8
2015-Aug-21 05:22N 44°17' E 009°13'910.8
2015-Aug-21 04:32N 44°12' E 009°02'1010.0
2015-Aug-21 03:34N 44°08' E 008°50'1010.4
2015-Aug-21 02:33N 44°03' E 008°37'2010.0
2015-Aug-21 00:33N 43°54' E 008°12'35 3.4
2015-Aug-20 14:13N 43°44' E 007°25'0 0.0
2015-Aug-20 12:22N 43°44' E 007°25'0 0.0
2015-Aug-18 16:31N 43°44' E 007°25'  
Track history (hours):
 
Tides and Currents Weather Stations Pressure Air Temp Water Temp Dewpoint Dewpoint Depression Visibility Wind Speed Wind Dir Waves Ship Positions

Lady Ann Magee

Last reported at 2015-Aug-26 16:17 UTC. Time now 2015-Aug-29 16:54 UTC.
Position N 43°44' E 007°25'.

Length 50 m; draft 3.4 m.

Type: Ship. MMSI: 215660000.

Date/timePositionNaut miles runAvg speedWind from/ knotsBaromVisibWave heightAir tempDewpointWater temp
2015-Aug-26 16:17N 43°44' E 007°25'0 0.0
2015-Aug-26 15:23N 43°44' E 007°25'0 0.0
2015-Aug-26 10:32N 43°44' E 007°25'  
2015-Aug-22 00:27N 43°60' E 008°33'910.2
2015-Aug-21 23:32N 44°05' E 008°43'10 9.9
2015-Aug-21 22:33N 44°10' E 008°55'10 9.9
2015-Aug-21 21:33N 44°15' E 009°07'6 0.4
2015-Aug-21 08:11N 44°18' E 009°13'0 0.0
2015-Aug-21 07:32N 44°18' E 009°13'2 0.8
2015-Aug-21 05:22N 44°17' E 009°13'910.8
2015-Aug-21 04:32N 44°12' E 009°02'1010.0
2015-Aug-21 03:34N 44°08' E 008°50'1010.4
2015-Aug-21 02:33N 44°03' E 008°37'2010.0
2015-Aug-21 00:33N 43°54' E 008°12'35 3.4
2015-Aug-20 14:13N 43°44' E 007°25'0 0.0
2015-Aug-20 12:22N 43°44' E 007°25'0 0.0
2015-Aug-18 16:31N 43°44' E 007°25'  

Dump ship's entire track history